Estación Meteorológica Peña el Pijo (Robertgarden) [ 10/21/17 19:49:38 CEST ]

Fecha Hora Presion(HPa) Temp (°C) Humedad % Rocio (°C) Viento ( m/s) Direccion Lluvia 1Hora(mm) Lluvia 24H(mm) LLuvia Total(mm)
2017-Oct-13 01:01:45 1019.400 10.1 73 5.5         1457.65
2017-Oct-13 02:01:57 1019.400 9.4 75 5.1         1457.65
2017-Oct-13 03:01:39 1019.200 8.9 77 5.0         1457.65
2017-Oct-13 04:09:03 1018.900 8.3 78 4.7         1457.65
2017-Oct-13 05:01:36 1018.500 8.0 80 4.8         1457.65
2017-Oct-13 06:02:01 1018.800 8.1 80 4.9         1457.65
2017-Oct-13 07:01:48 1018.800 8.1 80 4.9         1457.65
2017-Oct-13 08:01:53 1018.800 8.4 80 5.2         1457.65
2017-Oct-13 09:01:48 1019.000 8.4 80 5.2         1457.65
2017-Oct-13 10:01:49 1019.200 15.8 77 11.8         1457.65
2017-Oct-13 11:02:06 1019.300 24.3 47 12.2         1457.65
2017-Oct-13 12:02:01 1018.900 30.0 30 10.6         1457.65
2017-Oct-13 13:01:44 1018.200 30.4 26 8.5         1457.65
2017-Oct-13 14:01:47 1017.600 30.8 25 8.3         1457.65
2017-Oct-13 15:01:50 1017.000 30.8 22 6.5         1457.65
2017-Oct-13 16:01:49 1016.500 31.2 21 6.2         1457.65
2017-Oct-13 17:01:44 1016.500 30.1 23 6.5 1.1 W     1457.65
2017-Oct-13 18:01:59 1016.600 28.4 25 6.2         1457.65
2017-Oct-13 19:01:57 1016.900 24.8 27 4.4         1457.65
2017-Oct-13 20:01:46 1017.600 20.8 32 3.4         1457.65
2017-Oct-13 21:01:42 1017.800 16.9 42 3.8         1457.65
2017-Oct-13 22:01:45 1018.100 17.0 42 3.9         1457.65
2017-Oct-13 23:01:39 1018.500 14.4 47 3.2         1457.65

Temperatura Máxima:31°    Temperatura Mínima:
Presión Máxima:1019.400 Hpa    Presión Mínima:1016.500 Hpa


Volver